sensor_id;sensor_type;location;lat;lon;timestamp;P1;durP1;ratioP1;P2;durP2;ratioP2
19213;SDS011;9741;51.020;5.304;2023-05-10T00:01:26;3.17;;;2.30;;
19213;SDS011;9741;51.020;5.304;2023-05-10T00:03:53;2.70;;;1.80;;
19213;SDS011;9741;51.020;5.304;2023-05-10T00:06:22;3.90;;;2.37;;
19213;SDS011;9741;51.020;5.304;2023-05-10T00:08:49;3.33;;;1.93;;
19213;SDS011;9741;51.020;5.304;2023-05-10T00:11:17;2.43;;;1.60;;
19213;SDS011;9741;51.020;5.304;2023-05-10T00:13:45;2.33;;;1.53;;
19213;SDS011;9741;51.020;5.304;2023-05-10T00:16:13;4.07;;;1.73;;
19213;SDS011;9741;51.020;5.304;2023-05-10T00:18:41;3.67;;;1.83;;
19213;SDS011;9741;51.020;5.304;2023-05-10T00:21:09;1.20;;;1.10;;
19213;SDS011;9741;51.020;5.304;2023-05-10T00:23:38;4.73;;;2.20;;
19213;SDS011;9741;51.020;5.304;2023-05-10T00:26:07;1.63;;;1.23;;
19213;SDS011;9741;51.020;5.304;2023-05-10T00:28:35;2.60;;;1.80;;
19213;SDS011;9741;51.020;5.304;2023-05-10T00:31:03;3.70;;;2.17;;
19213;SDS011;9741;51.020;5.304;2023-05-10T00:33:31;3.57;;;2.00;;
19213;SDS011;9741;51.020;5.304;2023-05-10T00:35:58;4.10;;;1.70;;
19213;SDS011;9741;51.020;5.304;2023-05-10T00:38:26;3.00;;;1.40;;
19213;SDS011;9741;51.020;5.304;2023-05-10T00:40:54;1.37;;;1.10;;
19213;SDS011;9741;51.020;5.304;2023-05-10T00:43:22;3.13;;;1.43;;
19213;SDS011;9741;51.020;5.304;2023-05-10T00:45:52;3.37;;;1.90;;
19213;SDS011;9741;51.020;5.304;2023-05-10T00:48:20;1.77;;;1.50;;
19213;SDS011;9741;51.020;5.304;2023-05-10T00:50:48;1.47;;;1.37;;
19213;SDS011;9741;51.020;5.304;2023-05-10T00:53:16;2.07;;;1.87;;
19213;SDS011;9741;51.020;5.304;2023-05-10T00:55:44;2.33;;;1.70;;
19213;SDS011;9741;51.020;5.304;2023-05-10T00:58:13;3.60;;;2.20;;
19213;SDS011;9741;51.020;5.304;2023-05-10T01:00:41;3.10;;;1.50;;
19213;SDS011;9741;51.020;5.304;2023-05-10T01:03:10;1.70;;;1.57;;
19213;SDS011;9741;51.020;5.304;2023-05-10T01:05:38;2.87;;;1.50;;
19213;SDS011;9741;51.020;5.304;2023-05-10T01:08:06;1.50;;;1.40;;
19213;SDS011;9741;51.020;5.304;2023-05-10T01:10:36;1.40;;;1.17;;
19213;SDS011;9741;51.020;5.304;2023-05-10T01:13:06;2.33;;;1.17;;
19213;SDS011;9741;51.020;5.304;2023-05-10T01:15:38;1.73;;;1.03;;
19213;SDS011;9741;51.020;5.304;2023-05-10T01:18:06;2.93;;;1.97;;
19213;SDS011;9741;51.020;5.304;2023-05-10T01:20:39;2.20;;;1.40;;
19213;SDS011;9741;51.020;5.304;2023-05-10T01:23:21;2.07;;;1.33;;
19213;SDS011;9741;51.020;5.304;2023-05-10T01:26:10;3.50;;;1.60;;
19213;SDS011;9741;51.020;5.304;2023-05-10T01:29:08;1.77;;;1.33;;
19213;SDS011;9741;51.020;5.304;2023-05-10T01:34:42;1.23;;;0.87;;
19213;SDS011;9741;51.020;5.304;2023-05-10T01:37:15;1.57;;;1.23;;
19213;SDS011;9741;51.020;5.304;2023-05-10T01:39:49;2.07;;;1.10;;
19213;SDS011;9741;51.020;5.304;2023-05-10T01:42:26;1.80;;;1.23;;
19213;SDS011;9741;51.020;5.304;2023-05-10T01:45:02;1.50;;;1.20;;
19213;SDS011;9741;51.020;5.304;2023-05-10T01:47:41;3.50;;;2.17;;
19213;SDS011;9741;51.020;5.304;2023-05-10T01:50:10;4.00;;;1.43;;
19213;SDS011;9741;51.020;5.304;2023-05-10T01:52:44;2.07;;;1.43;;
19213;SDS011;9741;51.020;5.304;2023-05-10T01:55:18;2.00;;;1.57;;
19213;SDS011;9741;51.020;5.304;2023-05-10T01:57:50;1.07;;;0.97;;
19213;SDS011;9741;51.020;5.304;2023-05-10T02:00:23;1.23;;;1.10;;
19213;SDS011;9741;51.020;5.304;2023-05-10T02:02:53;3.20;;;1.47;;
19213;SDS011;9741;51.020;5.304;2023-05-10T02:05:22;1.50;;;1.40;;
19213;SDS011;9741;51.020;5.304;2023-05-10T02:07:53;2.03;;;1.57;;
19213;SDS011;9741;51.020;5.304;2023-05-10T02:10:22;1.63;;;1.37;;
19213;SDS011;9741;51.020;5.304;2023-05-10T02:12:53;2.77;;;1.50;;
19213;SDS011;9741;51.020;5.304;2023-05-10T02:15:25;1.60;;;1.20;;
19213;SDS011;9741;51.020;5.304;2023-05-10T02:17:55;2.27;;;1.53;;
19213;SDS011;9741;51.020;5.304;2023-05-10T02:20:25;16.57;;;2.07;;
19213;SDS011;9741;51.020;5.304;2023-05-10T02:22:54;5.43;;;1.70;;
19213;SDS011;9741;51.020;5.304;2023-05-10T02:25:23;3.40;;;1.93;;
19213;SDS011;9741;51.020;5.304;2023-05-10T02:27:53;1.87;;;1.20;;
19213;SDS011;9741;51.020;5.304;2023-05-10T02:30:23;2.93;;;1.63;;
19213;SDS011;9741;51.020;5.304;2023-05-10T02:32:51;1.97;;;1.37;;
19213;SDS011;9741;51.020;5.304;2023-05-10T02:35:20;2.17;;;1.53;;
19213;SDS011;9741;51.020;5.304;2023-05-10T02:37:52;3.17;;;1.60;;
19213;SDS011;9741;51.020;5.304;2023-05-10T02:40:21;8.60;;;1.80;;
19213;SDS011;9741;51.020;5.304;2023-05-10T02:42:51;2.13;;;1.87;;
19213;SDS011;9741;51.020;5.304;2023-05-10T02:45:21;1.63;;;1.27;;
19213;SDS011;9741;51.020;5.304;2023-05-10T02:47:55;5.60;;;1.87;;
19213;SDS011;9741;51.020;5.304;2023-05-10T02:50:24;3.50;;;1.80;;
19213;SDS011;9741;51.020;5.304;2023-05-10T02:52:59;1.47;;;1.33;;
19213;SDS011;9741;51.020;5.304;2023-05-10T02:55:30;1.37;;;1.27;;
19213;SDS011;9741;51.020;5.304;2023-05-10T02:58:03;1.57;;;1.27;;
19213;SDS011;9741;51.020;5.304;2023-05-10T03:00:33;3.07;;;1.70;;
19213;SDS011;9741;51.020;5.304;2023-05-10T03:03:01;2.50;;;1.40;;
19213;SDS011;9741;51.020;5.304;2023-05-10T03:05:35;4.00;;;1.93;;
19213;SDS011;9741;51.020;5.304;2023-05-10T03:08:02;1.50;;;1.40;;
19213;SDS011;9741;51.020;5.304;2023-05-10T03:10:32;1.83;;;1.40;;
19213;SDS011;9741;51.020;5.304;2023-05-10T03:13:06;1.93;;;1.40;;
19213;SDS011;9741;51.020;5.304;2023-05-10T03:15:42;3.53;;;1.70;;
19213;SDS011;9741;51.020;5.304;2023-05-10T03:18:21;7.67;;;2.67;;
19213;SDS011;9741;51.020;5.304;2023-05-10T03:20:51;2.23;;;1.53;;
19213;SDS011;9741;51.020;5.304;2023-05-10T03:23:26;1.90;;;1.30;;
19213;SDS011;9741;51.020;5.304;2023-05-10T03:25:57;1.77;;;1.10;;
19213;SDS011;9741;51.020;5.304;2023-05-10T03:28:27;4.07;;;2.30;;
19213;SDS011;9741;51.020;5.304;2023-05-10T03:30:55;1.53;;;1.17;;
19213;SDS011;9741;51.020;5.304;2023-05-10T03:33:24;3.47;;;2.17;;
19213;SDS011;9741;51.020;5.304;2023-05-10T03:35:53;3.03;;;1.47;;
19213;SDS011;9741;51.020;5.304;2023-05-10T03:38:23;2.13;;;1.77;;
19213;SDS011;9741;51.020;5.304;2023-05-10T03:40:53;2.97;;;1.43;;
19213;SDS011;9741;51.020;5.304;2023-05-10T03:43:21;4.13;;;2.40;;
19213;SDS011;9741;51.020;5.304;2023-05-10T03:45:53;5.23;;;1.77;;
19213;SDS011;9741;51.020;5.304;2023-05-10T03:48:21;2.00;;;1.07;;
19213;SDS011;9741;51.020;5.304;2023-05-10T03:50:48;3.60;;;1.90;;
19213;SDS011;9741;51.020;5.304;2023-05-10T03:53:18;3.33;;;2.30;;
19213;SDS011;9741;51.020;5.304;2023-05-10T03:55:46;6.20;;;1.83;;
19213;SDS011;9741;51.020;5.304;2023-05-10T03:58:14;3.70;;;1.13;;
19213;SDS011;9741;51.020;5.304;2023-05-10T04:00:42;2.80;;;1.90;;
19213;SDS011;9741;51.020;5.304;2023-05-10T04:03:11;3.63;;;2.13;;
19213;SDS011;9741;51.020;5.304;2023-05-10T04:05:39;1.87;;;1.60;;
19213;SDS011;9741;51.020;5.304;2023-05-10T04:08:10;2.73;;;2.03;;
19213;SDS011;9741;51.020;5.304;2023-05-10T04:10:39;4.40;;;2.63;;
19213;SDS011;9741;51.020;5.304;2023-05-10T04:13:06;2.37;;;1.67;;
19213;SDS011;9741;51.020;5.304;2023-05-10T04:15:34;1.97;;;1.87;;
19213;SDS011;9741;51.020;5.304;2023-05-10T04:18:02;3.10;;;2.10;;
19213;SDS011;9741;51.020;5.304;2023-05-10T04:20:31;2.50;;;1.97;;
19213;SDS011;9741;51.020;5.304;2023-05-10T04:23:00;1.83;;;1.63;;
19213;SDS011;9741;51.020;5.304;2023-05-10T04:25:28;2.93;;;1.33;;
19213;SDS011;9741;51.020;5.304;2023-05-10T04:27:57;1.50;;;1.30;;
19213;SDS011;9741;51.020;5.304;2023-05-10T04:30:25;3.10;;;2.10;;
19213;SDS011;9741;51.020;5.304;2023-05-10T04:32:54;3.93;;;1.60;;
19213;SDS011;9741;51.020;5.304;2023-05-10T04:35:22;5.93;;;3.23;;
19213;SDS011;9741;51.020;5.304;2023-05-10T04:37:51;4.03;;;1.57;;
19213;SDS011;9741;51.020;5.304;2023-05-10T04:40:19;3.77;;;2.83;;
19213;SDS011;9741;51.020;5.304;2023-05-10T04:42:48;2.47;;;1.73;;
19213;SDS011;9741;51.020;5.304;2023-05-10T04:45:17;3.77;;;2.50;;
19213;SDS011;9741;51.020;5.304;2023-05-10T04:47:45;3.47;;;2.40;;
19213;SDS011;9741;51.020;5.304;2023-05-10T04:50:13;4.77;;;2.77;;
19213;SDS011;9741;51.020;5.304;2023-05-10T04:52:41;3.90;;;2.43;;
19213;SDS011;9741;51.020;5.304;2023-05-10T04:55:09;1.97;;;1.80;;
19213;SDS011;9741;51.020;5.304;2023-05-10T04:57:37;4.77;;;2.00;;
19213;SDS011;9741;51.020;5.304;2023-05-10T05:00:05;4.73;;;3.53;;
19213;SDS011;9741;51.020;5.304;2023-05-10T05:02:35;7.67;;;3.13;;
19213;SDS011;9741;51.020;5.304;2023-05-10T05:05:06;3.63;;;2.43;;
19213;SDS011;9741;51.020;5.304;2023-05-10T05:07:34;3.23;;;2.43;;
19213;SDS011;9741;51.020;5.304;2023-05-10T05:10:02;3.10;;;1.87;;
19213;SDS011;9741;51.020;5.304;2023-05-10T05:12:29;4.60;;;2.77;;
19213;SDS011;9741;51.020;5.304;2023-05-10T05:15:00;26.93;;;3.90;;
19213;SDS011;9741;51.020;5.304;2023-05-10T05:17:30;6.67;;;3.33;;
19213;SDS011;9741;51.020;5.304;2023-05-10T05:20:03;5.20;;;3.03;;
19213;SDS011;9741;51.020;5.304;2023-05-10T05:22:32;4.63;;;2.97;;
19213;SDS011;9741;51.020;5.304;2023-05-10T05:25:00;5.13;;;2.83;;
19213;SDS011;9741;51.020;5.304;2023-05-10T05:27:30;6.23;;;3.87;;
19213;SDS011;9741;51.020;5.304;2023-05-10T05:30:18;8.37;;;4.37;;
19213;SDS011;9741;51.020;5.304;2023-05-10T05:32:46;6.77;;;4.53;;
19213;SDS011;9741;51.020;5.304;2023-05-10T05:35:15;21.20;;;6.47;;
19213;SDS011;9741;51.020;5.304;2023-05-10T05:37:46;9.40;;;5.10;;
19213;SDS011;9741;51.020;5.304;2023-05-10T05:40:14;10.00;;;5.60;;
19213;SDS011;9741;51.020;5.304;2023-05-10T05:42:44;10.87;;;5.07;;
19213;SDS011;9741;51.020;5.304;2023-05-10T05:45:12;7.70;;;4.33;;
19213;SDS011;9741;51.020;5.304;2023-05-10T05:47:40;9.53;;;4.83;;
19213;SDS011;9741;51.020;5.304;2023-05-10T05:50:08;9.67;;;4.73;;
19213;SDS011;9741;51.020;5.304;2023-05-10T05:52:39;10.93;;;5.77;;
19213;SDS011;9741;51.020;5.304;2023-05-10T05:55:09;7.40;;;3.73;;
19213;SDS011;9741;51.020;5.304;2023-05-10T05:57:37;7.03;;;4.00;;
19213;SDS011;9741;51.020;5.304;2023-05-10T06:00:07;13.53;;;4.13;;
19213;SDS011;9741;51.020;5.304;2023-05-10T06:02:36;9.40;;;4.23;;
19213;SDS011;9741;51.020;5.304;2023-05-10T06:05:04;7.90;;;3.73;;
19213;SDS011;9741;51.020;5.304;2023-05-10T06:07:33;6.53;;;3.73;;
19213;SDS011;9741;51.020;5.304;2023-05-10T06:10:02;9.97;;;4.17;;
19213;SDS011;9741;51.020;5.304;2023-05-10T06:12:32;12.23;;;5.67;;
19213;SDS011;9741;51.020;5.304;2023-05-10T06:15:01;7.43;;;3.63;;
19213;SDS011;9741;51.020;5.304;2023-05-10T06:17:30;8.03;;;3.97;;
19213;SDS011;9741;51.020;5.304;2023-05-10T06:20:00;5.80;;;4.27;;
19213;SDS011;9741;51.020;5.304;2023-05-10T06:22:28;6.33;;;4.37;;
19213;SDS011;9741;51.020;5.304;2023-05-10T06:24:58;8.20;;;3.67;;
19213;SDS011;9741;51.020;5.304;2023-05-10T06:27:29;10.83;;;5.07;;
19213;SDS011;9741;51.020;5.304;2023-05-10T06:29:58;13.23;;;5.43;;
19213;SDS011;9741;51.020;5.304;2023-05-10T06:32:27;8.00;;;3.75;;
19213;SDS011;9741;51.020;5.304;2023-05-10T06:34:55;6.50;;;4.10;;
19213;SDS011;9741;51.020;5.304;2023-05-10T06:37:24;7.45;;;5.00;;
19213;SDS011;9741;51.020;5.304;2023-05-10T06:39:54;5.33;;;3.57;;
19213;SDS011;9741;51.020;5.304;2023-05-10T06:42:22;9.52;;;4.10;;
19213;SDS011;9741;51.020;5.304;2023-05-10T06:44:53;9.60;;;4.07;;
19213;SDS011;9741;51.020;5.304;2023-05-10T06:47:23;11.03;;;4.80;;
19213;SDS011;9741;51.020;5.304;2023-05-10T06:49:51;7.43;;;3.43;;
19213;SDS011;9741;51.020;5.304;2023-05-10T06:52:19;7.10;;;4.27;;
19213;SDS011;9741;51.020;5.304;2023-05-10T06:54:47;4.00;;;3.17;;
19213;SDS011;9741;51.020;5.304;2023-05-10T06:57:15;8.20;;;4.60;;
19213;SDS011;9741;51.020;5.304;2023-05-10T06:59:44;9.15;;;4.80;;
19213;SDS011;9741;51.020;5.304;2023-05-10T07:02:16;11.97;;;5.70;;
19213;SDS011;9741;51.020;5.304;2023-05-10T07:04:43;8.80;;;3.92;;
19213;SDS011;9741;51.020;5.304;2023-05-10T07:07:13;9.05;;;4.22;;
19213;SDS011;9741;51.020;5.304;2023-05-10T07:09:40;7.53;;;3.37;;
19213;SDS011;9741;51.020;5.304;2023-05-10T07:12:08;10.10;;;4.37;;
19213;SDS011;9741;51.020;5.304;2023-05-10T07:14:36;7.10;;;4.30;;
19213;SDS011;9741;51.020;5.304;2023-05-10T07:17:04;6.30;;;4.03;;
19213;SDS011;9741;51.020;5.304;2023-05-10T07:19:34;6.83;;;2.60;;
19213;SDS011;9741;51.020;5.304;2023-05-10T07:22:04;7.67;;;3.80;;
19213;SDS011;9741;51.020;5.304;2023-05-10T07:24:33;4.17;;;2.40;;
19213;SDS011;9741;51.020;5.304;2023-05-10T07:27:04;6.00;;;3.70;;
19213;SDS011;9741;51.020;5.304;2023-05-10T07:29:32;4.40;;;3.13;;
19213;SDS011;9741;51.020;5.304;2023-05-10T07:32:00;3.97;;;3.33;;
19213;SDS011;9741;51.020;5.304;2023-05-10T07:34:27;7.37;;;3.90;;
19213;SDS011;9741;51.020;5.304;2023-05-10T07:36:57;6.63;;;3.83;;
19213;SDS011;9741;51.020;5.304;2023-05-10T07:39:26;6.70;;;3.03;;
19213;SDS011;9741;51.020;5.304;2023-05-10T07:41:53;4.80;;;3.90;;
19213;SDS011;9741;51.020;5.304;2023-05-10T07:44:30;4.70;;;3.23;;
19213;SDS011;9741;51.020;5.304;2023-05-10T07:46:58;4.50;;;2.90;;
19213;SDS011;9741;51.020;5.304;2023-05-10T07:49:26;6.00;;;3.50;;
19213;SDS011;9741;51.020;5.304;2023-05-10T07:51:54;7.73;;;4.53;;
19213;SDS011;9741;51.020;5.304;2023-05-10T07:54:23;9.10;;;3.43;;
19213;SDS011;9741;51.020;5.304;2023-05-10T07:56:51;6.70;;;2.87;;
19213;SDS011;9741;51.020;5.304;2023-05-10T07:59:19;6.80;;;3.53;;
19213;SDS011;9741;51.020;5.304;2023-05-10T08:01:47;6.17;;;3.87;;
19213;SDS011;9741;51.020;5.304;2023-05-10T08:04:15;6.33;;;3.67;;
19213;SDS011;9741;51.020;5.304;2023-05-10T08:06:43;7.47;;;3.43;;
19213;SDS011;9741;51.020;5.304;2023-05-10T08:09:15;6.37;;;4.13;;
19213;SDS011;9741;51.020;5.304;2023-05-10T08:11:43;4.97;;;3.10;;
19213;SDS011;9741;51.020;5.304;2023-05-10T08:14:11;6.40;;;3.60;;
19213;SDS011;9741;51.020;5.304;2023-05-10T08:16:38;6.80;;;3.20;;
19213;SDS011;9741;51.020;5.304;2023-05-10T08:19:06;7.53;;;3.93;;
19213;SDS011;9741;51.020;5.304;2023-05-10T08:21:34;6.53;;;3.87;;
19213;SDS011;9741;51.020;5.304;2023-05-10T08:24:02;5.50;;;3.27;;
19213;SDS011;9741;51.020;5.304;2023-05-10T08:26:33;3.77;;;2.90;;
19213;SDS011;9741;51.020;5.304;2023-05-10T08:29:03;8.63;;;3.87;;
19213;SDS011;9741;51.020;5.304;2023-05-10T08:31:30;4.83;;;3.20;;
19213;SDS011;9741;51.020;5.304;2023-05-10T08:33:59;12.63;;;4.27;;
19213;SDS011;9741;51.020;5.304;2023-05-10T08:36:29;6.57;;;3.53;;
19213;SDS011;9741;51.020;5.304;2023-05-10T08:38:57;8.57;;;3.60;;
19213;SDS011;9741;51.020;5.304;2023-05-10T08:41:25;5.03;;;3.50;;
19213;SDS011;9741;51.020;5.304;2023-05-10T08:43:55;4.55;;;2.83;;
19213;SDS011;9741;51.020;5.304;2023-05-10T08:46:22;5.15;;;3.13;;
19213;SDS011;9741;51.020;5.304;2023-05-10T08:48:53;6.93;;;3.73;;
19213;SDS011;9741;51.020;5.304;2023-05-10T08:51:23;5.95;;;3.63;;
19213;SDS011;9741;51.020;5.304;2023-05-10T08:53:52;4.43;;;2.50;;
19213;SDS011;9741;51.020;5.304;2023-05-10T08:56:19;2.90;;;1.90;;
19213;SDS011;9741;51.020;5.304;2023-05-10T08:58:47;5.45;;;2.30;;
19213;SDS011;9741;51.020;5.304;2023-05-10T09:01:19;2.75;;;1.92;;
19213;SDS011;9741;51.020;5.304;2023-05-10T09:03:47;1.80;;;1.55;;
19213;SDS011;9741;51.020;5.304;2023-05-10T09:06:24;4.57;;;2.03;;
19213;SDS011;9741;51.020;5.304;2023-05-10T09:08:52;5.68;;;1.95;;
19213;SDS011;9741;51.020;5.304;2023-05-10T09:11:22;3.15;;;0.82;;
19213;SDS011;9741;51.020;5.304;2023-05-10T09:13:52;0.93;;;0.85;;
19213;SDS011;9741;51.020;5.304;2023-05-10T09:16:21;1.33;;;1.23;;
19213;SDS011;9741;51.020;5.304;2023-05-10T09:18:48;2.13;;;1.67;;
19213;SDS011;9741;51.020;5.304;2023-05-10T09:21:16;1.73;;;1.25;;
19213;SDS011;9741;51.020;5.304;2023-05-10T09:23:47;1.10;;;0.90;;
19213;SDS011;9741;51.020;5.304;2023-05-10T09:26:21;1.67;;;1.35;;
19213;SDS011;9741;51.020;5.304;2023-05-10T09:28:50;1.75;;;0.95;;
19213;SDS011;9741;51.020;5.304;2023-05-10T09:31:21;4.75;;;1.27;;
19213;SDS011;9741;51.020;5.304;2023-05-10T09:33:50;2.45;;;1.63;;
19213;SDS011;9741;51.020;5.304;2023-05-10T09:36:18;3.25;;;1.65;;
19213;SDS011;9741;51.020;5.304;2023-05-10T09:38:47;1.30;;;1.20;;
19213;SDS011;9741;51.020;5.304;2023-05-10T09:41:18;2.17;;;1.45;;
19213;SDS011;9741;51.020;5.304;2023-05-10T09:43:48;5.03;;;1.38;;
19213;SDS011;9741;51.020;5.304;2023-05-10T09:46:18;1.63;;;1.52;;
19213;SDS011;9741;51.020;5.304;2023-05-10T09:48:47;1.50;;;1.35;;
19213;SDS011;9741;51.020;5.304;2023-05-10T09:51:20;2.97;;;1.90;;
19213;SDS011;9741;51.020;5.304;2023-05-10T09:53:49;2.42;;;1.15;;
19213;SDS011;9741;51.020;5.304;2023-05-10T09:56:40;2.60;;;1.15;;
19213;SDS011;9741;51.020;5.304;2023-05-10T09:59:10;1.02;;;0.93;;
19213;SDS011;9741;51.020;5.304;2023-05-10T10:01:38;2.00;;;1.67;;
19213;SDS011;9741;51.020;5.304;2023-05-10T10:04:09;1.23;;;1.02;;
19213;SDS011;9741;51.020;5.304;2023-05-10T10:06:39;1.10;;;1.00;;
19213;SDS011;9741;51.020;5.304;2023-05-10T10:09:07;1.92;;;1.35;;
19213;SDS011;9741;51.020;5.304;2023-05-10T10:11:36;1.63;;;1.42;;
19213;SDS011;9741;51.020;5.304;2023-05-10T10:14:07;2.47;;;1.60;;
19213;SDS011;9741;51.020;5.304;2023-05-10T10:16:35;1.98;;;1.25;;
19213;SDS011;9741;51.020;5.304;2023-05-10T10:19:03;1.73;;;1.60;;
19213;SDS011;9741;51.020;5.304;2023-05-10T10:21:34;1.65;;;1.10;;
19213;SDS011;9741;51.020;5.304;2023-05-10T10:24:01;1.80;;;1.70;;
19213;SDS011;9741;51.020;5.304;2023-05-10T10:26:32;1.92;;;1.70;;
19213;SDS011;9741;51.020;5.304;2023-05-10T10:29:07;3.97;;;1.13;;
19213;SDS011;9741;51.020;5.304;2023-05-10T10:31:53;2.40;;;1.42;;
19213;SDS011;9741;51.020;5.304;2023-05-10T10:34:29;1.65;;;1.23;;
19213;SDS011;9741;51.020;5.304;2023-05-10T10:37:07;2.22;;;1.83;;
19213;SDS011;9741;51.020;5.304;2023-05-10T10:39:34;1.60;;;1.27;;
19213;SDS011;9741;51.020;5.304;2023-05-10T10:42:04;4.18;;;2.00;;
19213;SDS011;9741;51.020;5.304;2023-05-10T10:44:37;2.75;;;1.63;;
19213;SDS011;9741;51.020;5.304;2023-05-10T10:47:07;6.60;;;1.80;;
19213;SDS011;9741;51.020;5.304;2023-05-10T10:50:02;5.40;;;2.08;;
19213;SDS011;9741;51.020;5.304;2023-05-10T10:52:34;3.47;;;2.17;;
19213;SDS011;9741;51.020;5.304;2023-05-10T10:55:03;2.20;;;1.27;;
19213;SDS011;9741;51.020;5.304;2023-05-10T10:57:42;5.55;;;2.22;;
19213;SDS011;9741;51.020;5.304;2023-05-10T11:02:57;3.17;;;1.77;;
19213;SDS011;9741;51.020;5.304;2023-05-10T11:05:39;1.77;;;1.50;;
19213;SDS011;9741;51.020;5.304;2023-05-10T11:08:12;3.42;;;2.25;;
19213;SDS011;9741;51.020;5.304;2023-05-10T11:10:49;4.30;;;2.03;;
19213;SDS011;9741;51.020;5.304;2023-05-10T11:13:27;2.00;;;1.50;;
19213;SDS011;9741;51.020;5.304;2023-05-10T11:15:56;2.15;;;1.63;;
19213;SDS011;9741;51.020;5.304;2023-05-10T11:18:26;2.33;;;1.63;;
19213;SDS011;9741;51.020;5.304;2023-05-10T11:20:57;6.43;;;1.77;;
19213;SDS011;9741;51.020;5.304;2023-05-10T11:23:48;3.33;;;2.15;;
19213;SDS011;9741;51.020;5.304;2023-05-10T11:26:16;2.00;;;1.55;;
19213;SDS011;9741;51.020;5.304;2023-05-10T11:28:48;3.78;;;2.08;;
19213;SDS011;9741;51.020;5.304;2023-05-10T11:31:17;2.38;;;1.65;;
19213;SDS011;9741;51.020;5.304;2023-05-10T11:33:53;2.25;;;1.63;;
19213;SDS011;9741;51.020;5.304;2023-05-10T11:36:24;3.55;;;1.85;;
19213;SDS011;9741;51.020;5.304;2023-05-10T11:38:55;1.80;;;1.65;;
19213;SDS011;9741;51.020;5.304;2023-05-10T11:41:28;3.17;;;1.55;;
19213;SDS011;9741;51.020;5.304;2023-05-10T11:43:57;5.47;;;1.88;;
19213;SDS011;9741;51.020;5.304;2023-05-10T11:46:25;2.00;;;1.20;;
19213;SDS011;9741;51.020;5.304;2023-05-10T11:48:57;1.13;;;1.02;;
19213;SDS011;9741;51.020;5.304;2023-05-10T11:51:32;1.55;;;1.35;;
19213;SDS011;9741;51.020;5.304;2023-05-10T11:54:05;2.10;;;1.75;;
19213;SDS011;9741;51.020;5.304;2023-05-10T11:56:34;5.50;;;1.25;;
19213;SDS011;9741;51.020;5.304;2023-05-10T11:59:03;1.10;;;1.00;;
19213;SDS011;9741;51.020;5.304;2023-05-10T12:01:33;1.55;;;1.23;;
19213;SDS011;9741;51.020;5.304;2023-05-10T12:04:01;0.80;;;0.73;;
19213;SDS011;9741;51.020;5.304;2023-05-10T12:06:32;2.20;;;1.35;;
19213;SDS011;9741;51.020;5.304;2023-05-10T12:09:06;1.23;;;1.02;;
19213;SDS011;9741;51.020;5.304;2023-05-10T12:11:36;1.38;;;1.08;;
19213;SDS011;9741;51.020;5.304;2023-05-10T12:14:07;2.60;;;1.25;;
19213;SDS011;9741;51.020;5.304;2023-05-10T12:16:36;2.90;;;1.55;;
19213;SDS011;9741;51.020;5.304;2023-05-10T12:19:06;1.50;;;0.70;;
19213;SDS011;9741;51.020;5.304;2023-05-10T12:21:33;1.05;;;0.75;;
19213;SDS011;9741;51.020;5.304;2023-05-10T12:24:01;1.48;;;1.15;;
19213;SDS011;9741;51.020;5.304;2023-05-10T12:26:35;1.25;;;1.10;;
19213;SDS011;9741;51.020;5.304;2023-05-10T12:29:13;2.17;;;0.90;;
19213;SDS011;9741;51.020;5.304;2023-05-10T12:31:49;1.27;;;0.73;;
19213;SDS011;9741;51.020;5.304;2023-05-10T12:34:30;0.75;;;0.70;;
19213;SDS011;9741;51.020;5.304;2023-05-10T12:36:59;0.47;;;0.47;;
19213;SDS011;9741;51.020;5.304;2023-05-10T12:39:37;0.68;;;0.60;;
19213;SDS011;9741;51.020;5.304;2023-05-10T12:42:07;1.58;;;0.77;;
19213;SDS011;9741;51.020;5.304;2023-05-10T12:44:35;0.93;;;0.85;;
19213;SDS011;9741;51.020;5.304;2023-05-10T12:47:03;0.90;;;0.73;;
19213;SDS011;9741;51.020;5.304;2023-05-10T12:49:31;0.47;;;0.47;;
19213;SDS011;9741;51.020;5.304;2023-05-10T12:52:01;0.80;;;0.63;;
19213;SDS011;9741;51.020;5.304;2023-05-10T12:54:29;1.38;;;0.40;;
19213;SDS011;9741;51.020;5.304;2023-05-10T12:57:00;0.75;;;0.40;;
19213;SDS011;9741;51.020;5.304;2023-05-10T12:59:29;0.82;;;0.75;;
19213;SDS011;9741;51.020;5.304;2023-05-10T13:01:57;1.75;;;0.80;;
19213;SDS011;9741;51.020;5.304;2023-05-10T13:04:25;1.25;;;0.98;;
19213;SDS011;9741;51.020;5.304;2023-05-10T13:06:52;2.00;;;0.63;;
19213;SDS011;9741;51.020;5.304;2023-05-10T13:09:24;0.47;;;0.47;;
19213;SDS011;9741;51.020;5.304;2023-05-10T13:11:52;0.68;;;0.57;;
19213;SDS011;9741;51.020;5.304;2023-05-10T13:14:19;0.90;;;0.73;;
19213;SDS011;9741;51.020;5.304;2023-05-10T13:16:51;0.68;;;0.60;;
19213;SDS011;9741;51.020;5.304;2023-05-10T13:19:19;4.80;;;0.95;;
19213;SDS011;9741;51.020;5.304;2023-05-10T13:21:49;0.93;;;0.50;;
19213;SDS011;9741;51.020;5.304;2023-05-10T13:24:17;0.35;;;0.30;;
19213;SDS011;9741;51.020;5.304;2023-05-10T13:26:45;0.40;;;0.40;;
19213;SDS011;9741;51.020;5.304;2023-05-10T13:29:13;0.40;;;0.40;;
19213;SDS011;9741;51.020;5.304;2023-05-10T13:31:43;1.50;;;0.80;;
19213;SDS011;9741;51.020;5.304;2023-05-10T13:34:14;0.50;;;0.43;;
19213;SDS011;9741;51.020;5.304;2023-05-10T13:36:42;0.73;;;0.55;;
19213;SDS011;9741;51.020;5.304;2023-05-10T13:39:10;0.30;;;0.30;;
19213;SDS011;9741;51.020;5.304;2023-05-10T13:41:38;0.55;;;0.20;;
19213;SDS011;9741;51.020;5.304;2023-05-10T13:44:06;2.95;;;0.47;;
19213;SDS011;9741;51.020;5.304;2023-05-10T13:46:35;0.80;;;0.40;;
19213;SDS011;9741;51.020;5.304;2023-05-10T13:49:04;1.75;;;0.63;;
19213;SDS011;9741;51.020;5.304;2023-05-10T13:51:36;0.30;;;0.30;;
19213;SDS011;9741;51.020;5.304;2023-05-10T13:54:03;0.45;;;0.45;;
19213;SDS011;9741;51.020;5.304;2023-05-10T13:56:32;0.32;;;0.32;;
19213;SDS011;9741;51.020;5.304;2023-05-10T13:59:00;4.85;;;0.60;;
19213;SDS011;9741;51.020;5.304;2023-05-10T14:01:28;1.23;;;0.70;;
19213;SDS011;9741;51.020;5.304;2023-05-10T14:03:55;0.63;;;0.57;;
19213;SDS011;9741;51.020;5.304;2023-05-10T14:06:24;0.52;;;0.40;;
19213;SDS011;9741;51.020;5.304;2023-05-10T14:08:53;0.50;;;0.45;;
19213;SDS011;9741;51.020;5.304;2023-05-10T14:11:22;0.55;;;0.40;;
19213;SDS011;9741;51.020;5.304;2023-05-10T14:13:49;0.20;;;0.20;;
19213;SDS011;9741;51.020;5.304;2023-05-10T14:16:17;0.80;;;0.45;;
19213;SDS011;9741;51.020;5.304;2023-05-10T14:18:47;0.20;;;0.20;;
19213;SDS011;9741;51.020;5.304;2023-05-10T14:21:14;0.65;;;0.43;;
19213;SDS011;9741;51.020;5.304;2023-05-10T14:23:45;0.40;;;0.40;;
19213;SDS011;9741;51.020;5.304;2023-05-10T14:26:17;0.22;;;0.22;;
19213;SDS011;9741;51.020;5.304;2023-05-10T14:28:46;0.47;;;0.47;;
19213;SDS011;9741;51.020;5.304;2023-05-10T14:31:14;0.40;;;0.40;;
19213;SDS011;9741;51.020;5.304;2023-05-10T14:33:42;0.73;;;0.57;;
19213;SDS011;9741;51.020;5.304;2023-05-10T14:36:09;0.40;;;0.40;;
19213;SDS011;9741;51.020;5.304;2023-05-10T14:38:37;2.10;;;0.60;;
19213;SDS011;9741;51.020;5.304;2023-05-10T14:41:05;0.85;;;0.47;;
19213;SDS011;9741;51.020;5.304;2023-05-10T14:43:34;0.85;;;0.30;;
19213;SDS011;9741;51.020;5.304;2023-05-10T14:46:04;0.77;;;0.55;;
19213;SDS011;9741;51.020;5.304;2023-05-10T14:48:32;0.38;;;0.38;;
19213;SDS011;9741;51.020;5.304;2023-05-10T14:50:59;0.82;;;0.47;;
19213;SDS011;9741;51.020;5.304;2023-05-10T14:53:27;0.73;;;0.60;;
19213;SDS011;9741;51.020;5.304;2023-05-10T14:55:55;1.00;;;0.70;;
19213;SDS011;9741;51.020;5.304;2023-05-10T14:58:27;1.60;;;1.00;;
19213;SDS011;9741;51.020;5.304;2023-05-10T15:00:55;1.75;;;0.85;;
19213;SDS011;9741;51.020;5.304;2023-05-10T15:03:23;1.80;;;0.50;;
19213;SDS011;9741;51.020;5.304;2023-05-10T15:05:51;0.55;;;0.52;;
19213;SDS011;9741;51.020;5.304;2023-05-10T15:08:18;0.43;;;0.43;;
19213;SDS011;9741;51.020;5.304;2023-05-10T15:10:46;0.63;;;0.63;;
19213;SDS011;9741;51.020;5.304;2023-05-10T15:13:16;1.15;;;0.88;;
19213;SDS011;9741;51.020;5.304;2023-05-10T15:15:46;1.48;;;0.63;;
19213;SDS011;9741;51.020;5.304;2023-05-10T15:18:18;0.70;;;0.70;;
19213;SDS011;9741;51.020;5.304;2023-05-10T15:20:46;0.47;;;0.43;;
19213;SDS011;9741;51.020;5.304;2023-05-10T15:23:14;0.47;;;0.43;;